sensor_id;sensor_type;location;lat;lon;timestamp;P1;durP1;ratioP1;P2;durP2;ratioP2
51020;SDS011;38907;45.562;8.856;2023-05-01T00:01:01;1.08;;;0.98;;
51020;SDS011;38907;45.562;8.856;2023-05-01T00:06:05;1.02;;;0.93;;
51020;SDS011;38907;45.562;8.856;2023-05-01T00:11:07;1.73;;;1.00;;
51020;SDS011;38907;45.562;8.856;2023-05-01T00:16:11;0.70;;;0.70;;
51020;SDS011;38907;45.562;8.856;2023-05-01T00:21:15;4.35;;;1.33;;
51020;SDS011;38907;45.562;8.856;2023-05-01T00:26:17;3.03;;;0.82;;
51020;SDS011;38907;45.562;8.856;2023-05-01T00:31:20;0.90;;;0.80;;
51020;SDS011;38907;45.562;8.856;2023-05-01T00:36:24;3.05;;;0.80;;
51020;SDS011;38907;45.562;8.856;2023-05-01T00:41:26;1.00;;;0.82;;
51020;SDS011;38907;45.562;8.856;2023-05-01T00:46:29;0.68;;;0.65;;
51020;SDS011;38907;45.562;8.856;2023-05-01T00:51:33;0.68;;;0.60;;
51020;SDS011;38907;45.562;8.856;2023-05-01T00:56:36;1.20;;;0.88;;
51020;SDS011;38907;45.562;8.856;2023-05-01T01:01:40;1.17;;;0.90;;
51020;SDS011;38907;45.562;8.856;2023-05-01T01:06:44;0.80;;;0.80;;
51020;SDS011;38907;45.562;8.856;2023-05-01T01:17:06;1.25;;;0.85;;
51020;SDS011;38907;45.562;8.856;2023-05-01T01:22:14;0.85;;;0.85;;
51020;SDS011;38907;45.562;8.856;2023-05-01T01:27:29;1.10;;;0.60;;
51020;SDS011;38907;45.562;8.856;2023-05-01T01:33:07;2.20;;;0.77;;
51020;SDS011;38907;45.562;8.856;2023-05-01T01:38:35;1.02;;;0.88;;
51020;SDS011;38907;45.562;8.856;2023-05-01T01:43:43;1.85;;;0.90;;
51020;SDS011;38907;45.562;8.856;2023-05-01T01:48:50;0.88;;;0.80;;
51020;SDS011;38907;45.562;8.856;2023-05-01T01:53:56;3.35;;;0.80;;
51020;SDS011;38907;45.562;8.856;2023-05-01T01:59:00;0.90;;;0.80;;
51020;SDS011;38907;45.562;8.856;2023-05-01T02:04:05;1.25;;;0.80;;
51020;SDS011;38907;45.562;8.856;2023-05-01T02:09:10;1.40;;;1.00;;
51020;SDS011;38907;45.562;8.856;2023-05-01T02:14:15;1.20;;;0.80;;
51020;SDS011;38907;45.562;8.856;2023-05-01T02:19:18;0.85;;;0.82;;
51020;SDS011;38907;45.562;8.856;2023-05-01T02:24:22;2.20;;;0.90;;
51020;SDS011;38907;45.562;8.856;2023-05-01T02:29:25;0.93;;;0.80;;
51020;SDS011;38907;45.562;8.856;2023-05-01T02:34:27;1.45;;;0.80;;
51020;SDS011;38907;45.562;8.856;2023-05-01T02:39:30;0.98;;;0.90;;
51020;SDS011;38907;45.562;8.856;2023-05-01T02:49:38;1.13;;;0.95;;
51020;SDS011;38907;45.562;8.856;2023-05-01T02:54:44;1.27;;;0.90;;
51020;SDS011;38907;45.562;8.856;2023-05-01T02:59:46;1.00;;;0.90;;
51020;SDS011;38907;45.562;8.856;2023-05-01T03:04:48;0.80;;;0.80;;
51020;SDS011;38907;45.562;8.856;2023-05-01T03:09:51;1.05;;;0.90;;
51020;SDS011;38907;45.562;8.856;2023-05-01T03:14:53;1.85;;;1.10;;
51020;SDS011;38907;45.562;8.856;2023-05-01T03:19:55;1.00;;;0.90;;
51020;SDS011;38907;45.562;8.856;2023-05-01T03:24:59;1.30;;;1.20;;
51020;SDS011;38907;45.562;8.856;2023-05-01T03:30:00;2.05;;;1.10;;
51020;SDS011;38907;45.562;8.856;2023-05-01T03:35:03;7.97;;;1.10;;
51020;SDS011;38907;45.562;8.856;2023-05-01T03:40:08;1.60;;;0.90;;
51020;SDS011;38907;45.562;8.856;2023-05-01T03:45:12;1.27;;;1.00;;
51020;SDS011;38907;45.562;8.856;2023-05-01T03:50:14;0.95;;;0.90;;
51020;SDS011;38907;45.562;8.856;2023-05-01T03:55:18;1.42;;;1.10;;
51020;SDS011;38907;45.562;8.856;2023-05-01T04:05:21;3.33;;;1.20;;
51020;SDS011;38907;45.562;8.856;2023-05-01T04:10:24;2.15;;;1.30;;
51020;SDS011;38907;45.562;8.856;2023-05-01T04:15:26;4.28;;;1.20;;
51020;SDS011;38907;45.562;8.856;2023-05-01T04:20:28;1.05;;;1.00;;
51020;SDS011;38907;45.562;8.856;2023-05-01T04:25:31;4.00;;;1.10;;
51020;SDS011;38907;45.562;8.856;2023-05-01T04:30:33;1.30;;;1.17;;
51020;SDS011;38907;45.562;8.856;2023-05-01T04:35:36;2.58;;;1.08;;
51020;SDS011;38907;45.562;8.856;2023-05-01T04:40:39;1.20;;;1.10;;
51020;SDS011;38907;45.562;8.856;2023-05-01T04:45:41;3.58;;;1.58;;
51020;SDS011;38907;45.562;8.856;2023-05-01T04:50:43;2.10;;;1.52;;
51020;SDS011;38907;45.562;8.856;2023-05-01T04:55:47;3.20;;;1.50;;
51020;SDS011;38907;45.562;8.856;2023-05-01T05:00:49;1.50;;;1.40;;
51020;SDS011;38907;45.562;8.856;2023-05-01T05:05:50;2.53;;;1.73;;
51020;SDS011;38907;45.562;8.856;2023-05-01T05:10:56;2.33;;;1.90;;
51020;SDS011;38907;45.562;8.856;2023-05-01T05:15:59;2.90;;;2.00;;
51020;SDS011;38907;45.562;8.856;2023-05-01T05:21:04;3.13;;;1.90;;
51020;SDS011;38907;45.562;8.856;2023-05-01T05:26:08;5.95;;;2.13;;
51020;SDS011;38907;45.562;8.856;2023-05-01T05:31:10;2.75;;;2.50;;
51020;SDS011;38907;45.562;8.856;2023-05-01T05:36:12;5.07;;;2.75;;
51020;SDS011;38907;45.562;8.856;2023-05-01T05:41:15;2.85;;;2.63;;
51020;SDS011;38907;45.562;8.856;2023-05-01T05:46:17;3.30;;;2.80;;
51020;SDS011;38907;45.562;8.856;2023-05-01T05:51:19;3.97;;;2.72;;
51020;SDS011;38907;45.562;8.856;2023-05-01T05:56:23;3.45;;;2.90;;
51020;SDS011;38907;45.562;8.856;2023-05-01T06:01:25;3.78;;;3.08;;
51020;SDS011;38907;45.562;8.856;2023-05-01T06:06:27;3.53;;;3.22;;
51020;SDS011;38907;45.562;8.856;2023-05-01T06:11:30;3.80;;;3.28;;
51020;SDS011;38907;45.562;8.856;2023-05-01T06:21:34;5.85;;;3.38;;
51020;SDS011;38907;45.562;8.856;2023-05-01T06:26:37;4.13;;;3.72;;
51020;SDS011;38907;45.562;8.856;2023-05-01T06:31:40;4.55;;;3.60;;
51020;SDS011;38907;45.562;8.856;2023-05-01T06:36:42;4.55;;;3.67;;
51020;SDS011;38907;45.562;8.856;2023-05-01T06:41:46;4.35;;;3.42;;
51020;SDS011;38907;45.562;8.856;2023-05-01T06:46:48;4.90;;;3.60;;
51020;SDS011;38907;45.562;8.856;2023-05-01T06:51:50;4.35;;;3.80;;
51020;SDS011;38907;45.562;8.856;2023-05-01T06:56:53;4.78;;;3.83;;
51020;SDS011;38907;45.562;8.856;2023-05-01T07:01:55;4.80;;;3.88;;
51020;SDS011;38907;45.562;8.856;2023-05-01T07:06:57;4.80;;;4.03;;
51020;SDS011;38907;45.562;8.856;2023-05-01T07:12:01;5.50;;;4.50;;
51020;SDS011;38907;45.562;8.856;2023-05-01T07:17:03;5.15;;;4.65;;
51020;SDS011;38907;45.562;8.856;2023-05-01T07:22:05;5.07;;;4.57;;
51020;SDS011;38907;45.562;8.856;2023-05-01T07:27:09;5.18;;;4.68;;
51020;SDS011;38907;45.562;8.856;2023-05-01T07:37:13;7.95;;;5.35;;
51020;SDS011;38907;45.562;8.856;2023-05-01T07:42:16;11.88;;;6.15;;
51020;SDS011;38907;45.562;8.856;2023-05-01T07:52:20;6.68;;;5.97;;
51020;SDS011;38907;45.562;8.856;2023-05-01T07:57:23;7.00;;;6.28;;
51020;SDS011;38907;45.562;8.856;2023-05-01T08:07:26;8.05;;;6.47;;
51020;SDS011;38907;45.562;8.856;2023-05-01T08:12:30;7.30;;;6.45;;
51020;SDS011;38907;45.562;8.856;2023-05-01T08:22:34;8.63;;;7.00;;
51020;SDS011;38907;45.562;8.856;2023-05-01T08:27:38;7.90;;;6.45;;
51020;SDS011;38907;45.562;8.856;2023-05-01T08:37:41;7.82;;;6.10;;
51020;SDS011;38907;45.562;8.856;2023-05-01T08:42:45;6.75;;;6.05;;
51020;SDS011;38907;45.562;8.856;2023-05-01T08:47:48;8.98;;;7.20;;
51020;SDS011;38907;45.562;8.856;2023-05-01T08:52:50;7.88;;;6.68;;
51020;SDS011;38907;45.562;8.856;2023-05-01T09:02:58;9.52;;;6.22;;
51020;SDS011;38907;45.562;8.856;2023-05-01T09:08:01;7.53;;;6.50;;
51020;SDS011;38907;45.562;8.856;2023-05-01T09:13:05;8.70;;;7.38;;
51020;SDS011;38907;45.562;8.856;2023-05-01T09:18:09;7.10;;;6.40;;
51020;SDS011;38907;45.562;8.856;2023-05-01T09:23:11;13.05;;;7.38;;
51020;SDS011;38907;45.562;8.856;2023-05-01T09:28:15;9.55;;;7.22;;
51020;SDS011;38907;45.562;8.856;2023-05-01T09:33:17;8.10;;;7.30;;
51020;SDS011;38907;45.562;8.856;2023-05-01T09:38:20;9.15;;;7.35;;
51020;SDS011;38907;45.562;8.856;2023-05-01T09:43:25;9.93;;;7.15;;
51020;SDS011;38907;45.562;8.856;2023-05-01T09:48:28;10.95;;;7.13;;
51020;SDS011;38907;45.562;8.856;2023-05-01T09:53:35;10.35;;;7.40;;
51020;SDS011;38907;45.562;8.856;2023-05-01T09:58:39;8.95;;;7.18;;
51020;SDS011;38907;45.562;8.856;2023-05-01T10:03:42;8.57;;;6.97;;
51020;SDS011;38907;45.562;8.856;2023-05-01T10:08:45;9.27;;;7.53;;
51020;SDS011;38907;45.562;8.856;2023-05-01T10:14:08;7.32;;;6.50;;
51020;SDS011;38907;45.562;8.856;2023-05-01T10:19:10;10.77;;;7.40;;
51020;SDS011;38907;45.562;8.856;2023-05-01T10:24:12;10.10;;;8.37;;
51020;SDS011;38907;45.562;8.856;2023-05-01T10:29:17;10.90;;;8.68;;
51020;SDS011;38907;45.562;8.856;2023-05-01T10:34:22;10.40;;;8.63;;
51020;SDS011;38907;45.562;8.856;2023-05-01T10:39:28;10.85;;;8.88;;
51020;SDS011;38907;45.562;8.856;2023-05-01T10:44:32;7.32;;;6.50;;
51020;SDS011;38907;45.562;8.856;2023-05-01T11:00:36;8.80;;;5.93;;
51020;SDS011;38907;45.562;8.856;2023-05-01T11:16:48;8.05;;;6.13;;
51020;SDS011;38907;45.562;8.856;2023-05-01T11:26:51;9.05;;;6.45;;
51020;SDS011;38907;45.562;8.856;2023-05-01T11:31:55;7.78;;;6.13;;
51020;SDS011;38907;45.562;8.856;2023-05-01T11:36:57;8.10;;;5.80;;
51020;SDS011;38907;45.562;8.856;2023-05-01T11:42:05;7.43;;;5.40;;
51020;SDS011;38907;45.562;8.856;2023-05-01T11:47:09;8.30;;;6.07;;
51020;SDS011;38907;45.562;8.856;2023-05-01T11:52:11;7.07;;;5.32;;
51020;SDS011;38907;45.562;8.856;2023-05-01T11:57:13;8.88;;;6.53;;
51020;SDS011;38907;45.562;8.856;2023-05-01T12:02:21;6.90;;;5.85;;
51020;SDS011;38907;45.562;8.856;2023-05-01T12:07:34;7.45;;;5.80;;
51020;SDS011;38907;45.562;8.856;2023-05-01T12:12:37;7.15;;;5.30;;
51020;SDS011;38907;45.562;8.856;2023-05-01T12:17:40;5.85;;;5.13;;
51020;SDS011;38907;45.562;8.856;2023-05-01T12:22:48;6.93;;;5.50;;
51020;SDS011;38907;45.562;8.856;2023-05-01T12:27:50;5.93;;;5.30;;
51020;SDS011;38907;45.562;8.856;2023-05-01T12:32:54;5.90;;;5.30;;
51020;SDS011;38907;45.562;8.856;2023-05-01T12:37:57;5.38;;;4.70;;
51020;SDS011;38907;45.562;8.856;2023-05-01T12:42:59;5.97;;;4.57;;
51020;SDS011;38907;45.562;8.856;2023-05-01T12:48:02;6.35;;;5.38;;
51020;SDS011;38907;45.562;8.856;2023-05-01T12:53:11;5.72;;;4.80;;
51020;SDS011;38907;45.562;8.856;2023-05-01T12:58:14;5.70;;;4.80;;
51020;SDS011;38907;45.562;8.856;2023-05-01T13:08:44;6.15;;;4.68;;
51020;SDS011;38907;45.562;8.856;2023-05-01T13:13:47;5.38;;;4.43;;
51020;SDS011;38907;45.562;8.856;2023-05-01T13:18:51;6.70;;;5.22;;
51020;SDS011;38907;45.562;8.856;2023-05-01T13:23:54;5.70;;;4.78;;
51020;SDS011;38907;45.562;8.856;2023-05-01T13:28:58;6.93;;;4.50;;
51020;SDS011;38907;45.562;8.856;2023-05-01T13:34:02;5.45;;;4.13;;
51020;SDS011;38907;45.562;8.856;2023-05-01T13:39:05;5.45;;;4.47;;
51020;SDS011;38907;45.562;8.856;2023-05-01T13:44:07;5.57;;;4.28;;
51020;SDS011;38907;45.562;8.856;2023-05-01T13:49:11;5.00;;;3.90;;
51020;SDS011;38907;45.562;8.856;2023-05-01T13:54:13;4.57;;;3.83;;
51020;SDS011;38907;45.562;8.856;2023-05-01T13:59:16;4.00;;;3.22;;
51020;SDS011;38907;45.562;8.856;2023-05-01T14:04:20;3.35;;;2.88;;
51020;SDS011;38907;45.562;8.856;2023-05-01T14:09:22;3.40;;;2.90;;
51020;SDS011;38907;45.562;8.856;2023-05-01T14:14:24;3.38;;;2.92;;
51020;SDS011;38907;45.562;8.856;2023-05-01T14:19:28;3.75;;;3.15;;
51020;SDS011;38907;45.562;8.856;2023-05-01T14:24:30;3.33;;;2.75;;
51020;SDS011;38907;45.562;8.856;2023-05-01T14:29:34;3.53;;;2.67;;
51020;SDS011;38907;45.562;8.856;2023-05-01T14:34:40;2.80;;;2.40;;
51020;SDS011;38907;45.562;8.856;2023-05-01T14:39:42;5.25;;;3.25;;
51020;SDS011;38907;45.562;8.856;2023-05-01T14:44:44;2.50;;;2.30;;
51020;SDS011;38907;45.562;8.856;2023-05-01T14:49:49;2.55;;;2.35;;
51020;SDS011;38907;45.562;8.856;2023-05-01T14:54:53;3.10;;;2.72;;
51020;SDS011;38907;45.562;8.856;2023-05-01T14:59:55;4.30;;;2.60;;
51020;SDS011;38907;45.562;8.856;2023-05-01T15:04:58;14.48;;;2.88;;
51020;SDS011;38907;45.562;8.856;2023-05-01T15:10:00;3.47;;;2.97;;
51020;SDS011;38907;45.562;8.856;2023-05-01T15:15:02;3.15;;;2.60;;
51020;SDS011;38907;45.562;8.856;2023-05-01T15:20:07;3.45;;;2.25;;
51020;SDS011;38907;45.562;8.856;2023-05-01T15:25:10;5.72;;;2.00;;
51020;SDS011;38907;45.562;8.856;2023-05-01T15:30:13;2.40;;;2.15;;
51020;SDS011;38907;45.562;8.856;2023-05-01T15:35:16;3.17;;;2.75;;
51020;SDS011;38907;45.562;8.856;2023-05-01T15:40:18;3.25;;;2.38;;
51020;SDS011;38907;45.562;8.856;2023-05-01T15:45:20;2.22;;;2.00;;
51020;SDS011;38907;45.562;8.856;2023-05-01T15:50:23;4.45;;;2.60;;
51020;SDS011;38907;45.562;8.856;2023-05-01T15:55:26;3.42;;;2.30;;
51020;SDS011;38907;45.562;8.856;2023-05-01T16:00:28;2.22;;;2.00;;
51020;SDS011;38907;45.562;8.856;2023-05-01T16:05:33;3.38;;;2.65;;
51020;SDS011;38907;45.562;8.856;2023-05-01T16:10:37;3.35;;;2.70;;
51020;SDS011;38907;45.562;8.856;2023-05-01T16:15:39;3.13;;;2.53;;
51020;SDS011;38907;45.562;8.856;2023-05-01T16:20:43;6.00;;;2.73;;
51020;SDS011;38907;45.562;8.856;2023-05-01T16:30:47;2.97;;;2.35;;
51020;SDS011;38907;45.562;8.856;2023-05-01T16:35:50;3.40;;;2.77;;
51020;SDS011;38907;45.562;8.856;2023-05-01T16:40:53;3.40;;;2.28;;
51020;SDS011;38907;45.562;8.856;2023-05-01T16:45:56;3.85;;;2.40;;
51020;SDS011;38907;45.562;8.856;2023-05-01T16:51:01;4.35;;;2.38;;
51020;SDS011;38907;45.562;8.856;2023-05-01T16:56:05;4.70;;;2.20;;
51020;SDS011;38907;45.562;8.856;2023-05-01T17:01:09;4.82;;;2.00;;
51020;SDS011;38907;45.562;8.856;2023-05-01T17:06:13;6.07;;;2.60;;
51020;SDS011;38907;45.562;8.856;2023-05-01T17:11:15;2.55;;;2.33;;
51020;SDS011;38907;45.562;8.856;2023-05-01T17:16:18;2.92;;;2.70;;
51020;SDS011;38907;45.562;8.856;2023-05-01T17:21:21;3.40;;;2.90;;
51020;SDS011;38907;45.562;8.856;2023-05-01T17:26:24;5.15;;;3.33;;
51020;SDS011;38907;45.562;8.856;2023-05-01T17:31:26;3.37;;;3.00;;
51020;SDS011;38907;45.562;8.856;2023-05-01T17:36:30;3.20;;;2.90;;
51020;SDS011;38907;45.562;8.856;2023-05-01T17:41:32;3.47;;;2.63;;
51020;SDS011;38907;45.562;8.856;2023-05-01T17:46:34;3.90;;;2.70;;
51020;SDS011;38907;45.562;8.856;2023-05-01T17:51:39;3.25;;;2.70;;
51020;SDS011;38907;45.562;8.856;2023-05-01T17:56:41;3.08;;;2.47;;
51020;SDS011;38907;45.562;8.856;2023-05-01T18:01:43;3.08;;;2.65;;
51020;SDS011;38907;45.562;8.856;2023-05-01T18:06:49;3.50;;;2.50;;
51020;SDS011;38907;45.562;8.856;2023-05-01T18:11:51;3.60;;;3.05;;
51020;SDS011;38907;45.562;8.856;2023-05-01T18:16:53;4.05;;;3.10;;
51020;SDS011;38907;45.562;8.856;2023-05-01T18:21:56;2.92;;;2.60;;
51020;SDS011;38907;45.562;8.856;2023-05-01T18:26:59;3.22;;;2.88;;
51020;SDS011;38907;45.562;8.856;2023-05-01T18:32:01;4.15;;;3.00;;
51020;SDS011;38907;45.562;8.856;2023-05-01T18:37:04;6.43;;;3.38;;
51020;SDS011;38907;45.562;8.856;2023-05-01T18:42:06;3.42;;;3.13;;
51020;SDS011;38907;45.562;8.856;2023-05-01T18:47:09;4.07;;;3.35;;
51020;SDS011;38907;45.562;8.856;2023-05-01T18:52:12;4.38;;;3.42;;
51020;SDS011;38907;45.562;8.856;2023-05-01T18:57:14;3.78;;;3.30;;
51020;SDS011;38907;45.562;8.856;2023-05-01T19:02:17;5.13;;;3.97;;
51020;SDS011;38907;45.562;8.856;2023-05-01T19:07:21;5.17;;;4.37;;
51020;SDS011;38907;45.562;8.856;2023-05-01T19:12:23;7.20;;;4.63;;
51020;SDS011;38907;45.562;8.856;2023-05-01T19:17:25;4.55;;;3.78;;
51020;SDS011;38907;45.562;8.856;2023-05-01T19:22:29;4.20;;;3.70;;
51020;SDS011;38907;45.562;8.856;2023-05-01T19:27:32;5.25;;;4.00;;
51020;SDS011;38907;45.562;8.856;2023-05-01T19:32:35;4.57;;;3.75;;
51020;SDS011;38907;45.562;8.856;2023-05-01T19:37:42;4.47;;;3.30;;
51020;SDS011;38907;45.562;8.856;2023-05-01T19:42:44;3.67;;;3.28;;
51020;SDS011;38907;45.562;8.856;2023-05-01T19:47:47;6.30;;;3.97;;
51020;SDS011;38907;45.562;8.856;2023-05-01T19:52:51;5.43;;;3.42;;
51020;SDS011;38907;45.562;8.856;2023-05-01T19:57:53;2.70;;;2.50;;
51020;SDS011;38907;45.562;8.856;2023-05-01T20:02:55;3.63;;;3.13;;
51020;SDS011;38907;45.562;8.856;2023-05-01T20:08:00;3.88;;;3.42;;
51020;SDS011;38907;45.562;8.856;2023-05-01T20:13:03;5.20;;;3.30;;
51020;SDS011;38907;45.562;8.856;2023-05-01T20:18:09;3.92;;;3.53;;
51020;SDS011;38907;45.562;8.856;2023-05-01T20:23:15;4.60;;;3.70;;
51020;SDS011;38907;45.562;8.856;2023-05-01T20:28:18;4.32;;;3.67;;
51020;SDS011;38907;45.562;8.856;2023-05-01T20:33:21;3.53;;;3.17;;
51020;SDS011;38907;45.562;8.856;2023-05-01T20:38:25;4.03;;;3.63;;
51020;SDS011;38907;45.562;8.856;2023-05-01T20:43:28;6.28;;;3.53;;
51020;SDS011;38907;45.562;8.856;2023-05-01T20:48:30;5.80;;;4.18;;
51020;SDS011;38907;45.562;8.856;2023-05-01T20:53:34;5.75;;;4.80;;
51020;SDS011;38907;45.562;8.856;2023-05-01T20:58:36;7.18;;;5.65;;
51020;SDS011;38907;45.562;8.856;2023-05-01T21:03:38;7.40;;;6.07;;
51020;SDS011;38907;45.562;8.856;2023-05-01T21:08:42;5.97;;;5.28;;
51020;SDS011;38907;45.562;8.856;2023-05-01T21:13:45;7.45;;;5.75;;
51020;SDS011;38907;45.562;8.856;2023-05-01T21:18:47;8.17;;;5.67;;
51020;SDS011;38907;45.562;8.856;2023-05-01T21:23:51;9.23;;;5.57;;
51020;SDS011;38907;45.562;8.856;2023-05-01T21:28:53;7.53;;;5.75;;
51020;SDS011;38907;45.562;8.856;2023-05-01T21:33:55;8.07;;;6.22;;
51020;SDS011;38907;45.562;8.856;2023-05-01T21:39:02;6.32;;;5.20;;
51020;SDS011;38907;45.562;8.856;2023-05-01T21:44:04;6.82;;;6.13;;
51020;SDS011;38907;45.562;8.856;2023-05-01T21:49:09;8.90;;;6.32;;
51020;SDS011;38907;45.562;8.856;2023-05-01T21:54:13;9.52;;;6.85;;
51020;SDS011;38907;45.562;8.856;2023-05-01T21:59:16;7.38;;;6.45;;
51020;SDS011;38907;45.562;8.856;2023-05-01T22:04:19;9.07;;;7.15;;
51020;SDS011;38907;45.562;8.856;2023-05-01T22:09:22;9.73;;;6.70;;
51020;SDS011;38907;45.562;8.856;2023-05-01T22:19:26;6.97;;;6.18;;
51020;SDS011;38907;45.562;8.856;2023-05-01T22:24:29;11.98;;;6.63;;
51020;SDS011;38907;45.562;8.856;2023-05-01T22:29:31;7.88;;;6.65;;
51020;SDS011;38907;45.562;8.856;2023-05-01T22:34:33;7.47;;;6.68;;
51020;SDS011;38907;45.562;8.856;2023-05-01T22:39:36;8.00;;;6.18;;
51020;SDS011;38907;45.562;8.856;2023-05-01T22:44:38;8.20;;;6.60;;
51020;SDS011;38907;45.562;8.856;2023-05-01T22:49:40;9.55;;;6.65;;
51020;SDS011;38907;45.562;8.856;2023-05-01T22:54:43;7.88;;;6.95;;
51020;SDS011;38907;45.562;8.856;2023-05-01T22:59:46;6.40;;;5.78;;
51020;SDS011;38907;45.562;8.856;2023-05-01T23:04:48;8.10;;;6.88;;
51020;SDS011;38907;45.562;8.856;2023-05-01T23:09:52;10.00;;;6.43;;
51020;SDS011;38907;45.562;8.856;2023-05-01T23:14:56;6.70;;;6.03;;
51020;SDS011;38907;45.562;8.856;2023-05-01T23:19:57;8.52;;;5.70;;
51020;SDS011;38907;45.562;8.856;2023-05-01T23:25:01;7.53;;;6.43;;
51020;SDS011;38907;45.562;8.856;2023-05-01T23:30:03;7.88;;;6.20;;
51020;SDS011;38907;45.562;8.856;2023-05-01T23:35:08;7.28;;;5.78;;
51020;SDS011;38907;45.562;8.856;2023-05-01T23:40:14;7.30;;;5.45;;
51020;SDS011;38907;45.562;8.856;2023-05-01T23:45:16;6.63;;;4.75;;
51020;SDS011;38907;45.562;8.856;2023-05-01T23:50:18;6.05;;;3.90;;
51020;SDS011;38907;45.562;8.856;2023-05-01T23:55:21;4.68;;;3.88;;
